createdAt,value
2023-05-24T00:02:17.207Z,3.85
2023-05-24T00:04:45.486Z,3.60
2023-05-24T00:07:12.756Z,3.70
2023-05-24T00:09:39.897Z,3.80
2023-05-24T00:12:07.014Z,3.05
2023-05-24T00:14:34.298Z,3.25
2023-05-24T00:17:01.624Z,3.20
2023-05-24T00:19:29.197Z,3.53
2023-05-24T00:21:56.507Z,3.42
2023-05-24T00:24:23.590Z,3.80
2023-05-24T00:26:50.890Z,3.38
2023-05-24T00:29:18.116Z,3.78
2023-05-24T00:31:45.382Z,3.40
2023-05-24T00:34:12.594Z,2.83
2023-05-24T00:36:39.726Z,3.60
2023-05-24T00:39:06.924Z,4.10
2023-05-24T00:41:34.293Z,3.63
2023-05-24T00:44:01.584Z,3.97
2023-05-24T00:46:29.900Z,3.78
2023-05-24T00:48:57.775Z,3.80
2023-05-24T00:51:29.306Z,3.58
2023-05-24T00:53:56.615Z,2.72
2023-05-24T00:56:23.857Z,3.35
2023-05-24T00:58:54.681Z,2.97
2023-05-24T01:01:25.613Z,3.60
2023-05-24T01:03:54.296Z,4.13
2023-05-24T01:06:21.764Z,4.07
2023-05-24T01:08:56.231Z,3.50
2023-05-24T01:11:42.029Z,3.67
2023-05-24T01:14:28.166Z,3.65
2023-05-24T01:16:58.264Z,3.92
2023-05-24T01:19:43.349Z,3.60
2023-05-24T01:22:17.573Z,4.53
2023-05-24T01:25:03.768Z,3.80
2023-05-24T01:27:32.579Z,3.50
2023-05-24T01:30:00.671Z,3.50
2023-05-24T01:32:28.012Z,3.22
2023-05-24T01:34:55.375Z,4.43
2023-05-24T01:37:22.496Z,4.45
2023-05-24T01:39:50.001Z,4.20
2023-05-24T01:42:24.093Z,4.72
2023-05-24T01:44:56.544Z,3.88
2023-05-24T01:47:26.709Z,3.75
2023-05-24T01:49:59.806Z,3.38
2023-05-24T01:52:29.329Z,3.65
2023-05-24T01:54:57.698Z,3.80
2023-05-24T01:57:25.806Z,4.22
2023-05-24T01:59:54.797Z,4.13
2023-05-24T02:02:22.243Z,3.92
2023-05-24T02:04:49.805Z,4.88
2023-05-24T02:07:17.580Z,4.30
2023-05-24T02:09:44.746Z,4.97
2023-05-24T02:12:12.145Z,5.25
2023-05-24T02:14:39.219Z,5.57
2023-05-24T02:17:06.717Z,4.95
2023-05-24T02:19:36.822Z,5.78
2023-05-24T02:22:04.513Z,6.03
2023-05-24T02:24:31.657Z,4.78
2023-05-24T02:26:58.772Z,6.10
2023-05-24T02:29:25.848Z,4.30
2023-05-24T02:31:56.408Z,6.65
2023-05-24T02:34:24.095Z,4.82
2023-05-24T02:36:51.652Z,5.43
2023-05-24T02:39:18.770Z,4.13
2023-05-24T02:41:45.875Z,4.93
2023-05-24T02:44:12.964Z,4.45
2023-05-24T02:46:40.245Z,4.50
2023-05-24T02:49:07.547Z,4.60
2023-05-24T02:51:34.615Z,4.28
2023-05-24T02:54:02.120Z,5.32
2023-05-24T02:56:29.382Z,6.63
2023-05-24T02:58:56.715Z,4.55
2023-05-24T03:01:24.087Z,4.00
2023-05-24T03:03:51.296Z,4.35
2023-05-24T03:06:18.551Z,4.15
2023-05-24T03:08:46.049Z,4.82
2023-05-24T03:11:13.368Z,4.18
2023-05-24T03:13:40.613Z,4.25
2023-05-24T03:16:07.931Z,4.13
2023-05-24T03:18:35.115Z,4.47
2023-05-24T03:21:02.237Z,3.88
2023-05-24T03:23:29.391Z,4.28
2023-05-24T03:25:56.624Z,4.35
2023-05-24T03:28:23.770Z,4.32
2023-05-24T03:30:51.098Z,3.72
2023-05-24T03:33:18.172Z,4.93
2023-05-24T03:35:45.316Z,5.10
2023-05-24T03:38:12.482Z,4.78
2023-05-24T03:40:39.751Z,4.50
2023-05-24T03:43:06.989Z,3.22
2023-05-24T03:45:39.257Z,3.53
2023-05-24T03:48:07.335Z,3.35
2023-05-24T03:50:34.455Z,3.40
2023-05-24T03:53:01.594Z,4.25
2023-05-24T03:55:28.804Z,5.15
2023-05-24T03:57:55.923Z,3.88
2023-05-24T04:00:23.047Z,4.32
2023-05-24T04:02:50.764Z,3.92
2023-05-24T04:05:17.996Z,4.15
2023-05-24T04:07:46.338Z,4.35
2023-05-24T04:10:13.537Z,5.00
2023-05-24T04:12:42.088Z,5.40
2023-05-24T04:15:09.942Z,4.53
2023-05-24T04:17:37.402Z,4.47
2023-05-24T04:20:05.936Z,5.28
2023-05-24T04:22:33.037Z,4.72
2023-05-24T04:25:00.498Z,4.72
2023-05-24T04:27:29.552Z,5.40
2023-05-24T04:29:56.834Z,4.72
2023-05-24T04:32:24.054Z,4.70
2023-05-24T04:34:52.532Z,4.20
2023-05-24T04:37:19.629Z,5.15
2023-05-24T04:39:47.184Z,5.00
2023-05-24T04:42:14.382Z,4.40
2023-05-24T04:44:42.646Z,4.82
2023-05-24T04:47:10.710Z,4.20
2023-05-24T04:49:37.905Z,3.72
2023-05-24T04:52:05.293Z,3.78
2023-05-24T04:54:32.552Z,3.83
2023-05-24T04:56:59.708Z,4.47
2023-05-24T04:59:26.831Z,4.53
2023-05-24T05:01:53.953Z,4.63
2023-05-24T05:04:21.073Z,3.35
2023-05-24T05:06:48.623Z,3.35
2023-05-24T05:09:15.967Z,3.25
2023-05-24T05:11:43.349Z,3.00
2023-05-24T05:14:10.764Z,2.95
2023-05-24T05:16:38.409Z,3.30
2023-05-24T05:19:05.889Z,3.30
2023-05-24T05:21:33.281Z,2.35
2023-05-24T05:24:00.909Z,2.97
2023-05-24T05:26:28.489Z,3.45
2023-05-24T05:28:55.678Z,3.10
2023-05-24T05:31:23.043Z,2.72
2023-05-24T05:33:50.550Z,3.05
2023-05-24T05:36:18.014Z,2.70
2023-05-24T05:38:45.128Z,2.30
2023-05-24T05:41:12.280Z,1.95
2023-05-24T05:43:39.660Z,2.42
2023-05-24T05:46:07.128Z,2.45
2023-05-24T05:48:34.324Z,1.77
2023-05-24T05:51:01.455Z,2.35
2023-05-24T05:53:28.637Z,2.30
2023-05-24T05:55:56.926Z,2.17
2023-05-24T05:58:23.982Z,1.92
2023-05-24T06:00:52.015Z,2.20
2023-05-24T06:03:19.300Z,3.10
2023-05-24T06:05:46.630Z,2.47
2023-05-24T06:08:13.907Z,2.47
2023-05-24T06:10:41.107Z,1.85
2023-05-24T06:13:08.464Z,2.17
2023-05-24T06:15:35.665Z,1.92
2023-05-24T06:18:02.762Z,1.58
2023-05-24T06:20:30.107Z,2.53
2023-05-24T06:22:57.467Z,2.30
2023-05-24T06:25:24.835Z,2.53
2023-05-24T06:27:51.981Z,2.55
2023-05-24T06:30:19.342Z,2.40
2023-05-24T06:32:46.585Z,2.15
2023-05-24T06:35:14.220Z,2.63
2023-05-24T06:37:41.420Z,1.67
2023-05-24T06:40:12.040Z,2.03
2023-05-24T06:42:39.676Z,1.20
2023-05-24T06:45:08.306Z,2.15
2023-05-24T06:47:36.267Z,1.67
2023-05-24T06:50:06.878Z,2.88
2023-05-24T06:52:34.015Z,1.70
2023-05-24T06:55:01.375Z,1.55
2023-05-24T06:57:28.508Z,2.10
2023-05-24T06:59:55.593Z,2.00
2023-05-24T07:02:27.332Z,1.63
2023-05-24T07:04:54.667Z,2.13
2023-05-24T07:07:22.207Z,1.65
2023-05-24T07:09:49.340Z,2.53
2023-05-24T07:12:16.622Z,1.50
2023-05-24T07:14:43.807Z,1.60
2023-05-24T07:17:10.974Z,1.42
2023-05-24T07:19:38.291Z,1.73
2023-05-24T07:22:05.481Z,1.60
2023-05-24T07:24:32.574Z,1.42
2023-05-24T07:26:59.706Z,1.95
2023-05-24T07:29:26.918Z,1.63
2023-05-24T07:31:56.373Z,1.88
2023-05-24T07:34:27.358Z,1.52
2023-05-24T07:36:54.532Z,1.60
2023-05-24T07:39:21.691Z,1.65
2023-05-24T07:41:49.048Z,2.53
2023-05-24T07:44:16.240Z,1.35
2023-05-24T07:46:43.373Z,1.70
2023-05-24T07:49:11.081Z,2.03
2023-05-24T07:51:38.903Z,2.13
2023-05-24T07:54:06.631Z,2.47
2023-05-24T07:56:33.945Z,1.85
2023-05-24T07:59:04.872Z,1.98
2023-05-24T08:01:36.796Z,1.63
2023-05-24T08:04:04.376Z,1.65
2023-05-24T08:06:35.215Z,1.52
2023-05-24T08:09:04.339Z,2.63
2023-05-24T08:11:31.574Z,1.60
2023-05-24T08:13:58.719Z,1.55
2023-05-24T08:16:26.127Z,2.17
2023-05-24T08:18:55.209Z,2.10
2023-05-24T08:21:22.608Z,1.80
2023-05-24T08:23:49.780Z,1.65
2023-05-24T08:26:19.172Z,2.00
2023-05-24T08:28:46.415Z,1.70
2023-05-24T08:31:13.609Z,1.50
2023-05-24T08:33:41.810Z,1.45
2023-05-24T08:36:09.011Z,1.77
2023-05-24T08:38:36.139Z,1.15
2023-05-24T08:41:07.225Z,1.20
2023-05-24T08:43:34.328Z,0.95
2023-05-24T08:46:03.699Z,1.52
2023-05-24T08:48:31.219Z,1.00
2023-05-24T08:50:59.497Z,1.02
2023-05-24T08:53:27.607Z,0.90
2023-05-24T08:55:56.132Z,1.20
2023-05-24T08:58:23.427Z,1.27
2023-05-24T09:00:50.664Z,1.83
2023-05-24T09:03:18.633Z,1.45
2023-05-24T09:05:46.293Z,1.50
2023-05-24T09:08:18.067Z,1.30
2023-05-24T09:13:19.983Z,1.52
2023-05-24T09:15:47.283Z,1.20
2023-05-24T09:18:14.478Z,1.23
2023-05-24T09:20:42.261Z,1.35
2023-05-24T09:23:10.118Z,1.73
2023-05-24T09:25:37.493Z,1.38
2023-05-24T09:28:08.450Z,1.02
2023-05-24T09:30:36.606Z,1.20
2023-05-24T09:33:05.539Z,1.13
2023-05-24T09:35:32.860Z,1.23
2023-05-24T09:38:00.234Z,1.40
2023-05-24T09:40:28.101Z,1.83
2023-05-24T09:43:09.805Z,1.20
2023-05-24T09:45:47.216Z,1.35
2023-05-24T09:48:15.403Z,1.45
2023-05-24T09:50:43.084Z,1.60
2023-05-24T09:53:10.746Z,1.27
2023-05-24T09:55:38.250Z,1.05
2023-05-24T09:58:08.296Z,1.27
2023-05-24T10:00:42.690Z,1.33
2023-05-24T10:03:12.025Z,1.13
2023-05-24T10:05:45.165Z,1.40
2023-05-24T10:08:14.467Z,1.55
2023-05-24T10:10:43.119Z,1.02
2023-05-24T10:13:11.593Z,1.42
2023-05-24T10:15:38.874Z,1.30
2023-05-24T10:18:09.800Z,1.98
2023-05-24T10:20:41.483Z,1.42
2023-05-24T10:23:10.541Z,1.25
2023-05-24T10:25:39.345Z,1.25
2023-05-24T10:28:09.704Z,1.08
2023-05-24T10:30:43.400Z,1.00
2023-05-24T10:33:13.108Z,1.08
2023-05-24T10:35:40.714Z,1.20
2023-05-24T10:38:08.443Z,1.10
2023-05-24T10:40:36.109Z,1.05
2023-05-24T10:43:07.166Z,1.08
2023-05-24T10:45:37.251Z,1.42
2023-05-24T10:48:13.834Z,0.82
2023-05-24T10:50:41.325Z,1.10
2023-05-24T10:53:19.431Z,1.10
2023-05-24T10:55:55.746Z,0.88
2023-05-24T10:58:24.361Z,1.13
2023-05-24T11:00:53.324Z,1.17
2023-05-24T11:03:24.723Z,1.20
2023-05-24T11:08:33.205Z,1.27
2023-05-24T11:13:40.754Z,0.90
2023-05-24T11:16:08.549Z,1.23
2023-05-24T11:18:40.121Z,1.10
2023-05-24T11:21:07.425Z,0.98
2023-05-24T11:23:37.377Z,1.05
2023-05-24T11:26:05.426Z,1.60
2023-05-24T11:28:32.707Z,1.35
2023-05-24T11:31:08.520Z,1.20
2023-05-24T11:33:35.883Z,1.30
2023-05-24T11:36:03.082Z,1.60
2023-05-24T11:38:30.209Z,1.27
2023-05-24T11:40:58.900Z,1.05
2023-05-24T11:43:26.047Z,1.02
2023-05-24T11:45:53.654Z,1.20
2023-05-24T11:48:20.827Z,1.08
2023-05-24T11:50:51.573Z,1.17
2023-05-24T11:53:20.456Z,1.10
2023-05-24T11:55:48.668Z,1.02
2023-05-24T11:58:22.459Z,1.02
2023-05-24T12:00:49.761Z,1.02
2023-05-24T12:03:17.568Z,0.95
2023-05-24T12:05:44.817Z,0.98
2023-05-24T12:08:13.837Z,0.80
2023-05-24T12:10:42.926Z,1.10
2023-05-24T12:13:23.636Z,1.38
2023-05-24T12:15:55.635Z,0.93
2023-05-24T12:18:25.137Z,1.00
2023-05-24T12:20:52.999Z,1.30
2023-05-24T12:23:21.636Z,1.00
2023-05-24T12:25:48.790Z,1.15
2023-05-24T12:28:18.792Z,1.10
2023-05-24T12:30:46.564Z,1.20
2023-05-24T12:33:13.826Z,1.15
2023-05-24T12:35:43.749Z,1.20
2023-05-24T12:38:11.219Z,1.08
2023-05-24T12:40:38.476Z,1.00
2023-05-24T12:43:05.625Z,1.20
2023-05-24T12:45:32.922Z,1.33
2023-05-24T12:48:02.950Z,0.98
2023-05-24T12:50:30.589Z,1.30
2023-05-24T12:52:58.025Z,1.33
2023-05-24T12:55:29.163Z,1.20
2023-05-24T12:57:57.050Z,1.42
2023-05-24T13:00:28.746Z,1.08
2023-05-24T13:05:28.305Z,1.30
2023-05-24T13:07:56.631Z,1.20
2023-05-24T13:10:24.474Z,1.10
2023-05-24T13:12:51.872Z,1.25
2023-05-24T13:15:19.577Z,1.05
2023-05-24T13:17:47.443Z,1.90
2023-05-24T13:20:14.649Z,1.95
2023-05-24T13:22:42.269Z,1.42
2023-05-24T13:25:10.011Z,1.15
2023-05-24T13:27:37.160Z,1.33
2023-05-24T13:30:05.580Z,1.75
2023-05-24T13:32:33.385Z,1.10
2023-05-24T13:35:00.850Z,1.00
2023-05-24T13:37:27.976Z,1.00
2023-05-24T13:39:55.224Z,1.58
2023-05-24T13:42:23.076Z,1.10
2023-05-24T13:44:50.324Z,1.63
2023-05-24T13:47:31.081Z,1.35
2023-05-24T13:50:03.601Z,1.10
2023-05-24T13:52:30.970Z,1.13
2023-05-24T13:54:58.130Z,1.42
2023-05-24T13:57:31.347Z,1.23
2023-05-24T14:00:09.034Z,1.40
2023-05-24T14:02:36.915Z,1.65
2023-05-24T14:05:21.694Z,1.23
2023-05-24T14:07:52.095Z,1.25
2023-05-24T14:10:21.659Z,1.20
2023-05-24T14:12:56.450Z,1.48
2023-05-24T14:15:36.177Z,1.52
2023-05-24T14:18:07.827Z,1.20
2023-05-24T14:20:40.282Z,1.65
2023-05-24T14:23:08.001Z,1.33
2023-05-24T14:25:35.332Z,1.17
2023-05-24T14:28:03.722Z,1.42
2023-05-24T14:30:33.743Z,1.42
2023-05-24T14:33:01.134Z,1.48
2023-05-24T14:35:28.330Z,1.27
2023-05-24T14:37:55.611Z,1.20
2023-05-24T14:40:22.850Z,1.30
2023-05-24T14:42:50.139Z,1.05
2023-05-24T14:45:17.248Z,1.70
2023-05-24T14:47:44.417Z,1.55
2023-05-24T14:50:11.852Z,1.45
2023-05-24T14:52:39.118Z,1.00
2023-05-24T14:55:07.267Z,1.23
2023-05-24T14:57:34.393Z,1.30
2023-05-24T15:00:01.516Z,1.65
2023-05-24T15:02:28.724Z,0.93
2023-05-24T15:04:55.954Z,1.17
2023-05-24T15:07:23.155Z,0.80
2023-05-24T15:09:50.314Z,1.40
2023-05-24T15:12:17.502Z,0.90
2023-05-24T15:14:44.691Z,1.13
2023-05-24T15:17:11.972Z,1.27
2023-05-24T15:19:39.964Z,0.90
2023-05-24T15:22:10.060Z,2.75
2023-05-24T15:24:38.514Z,1.38
2023-05-24T15:27:05.675Z,1.17
2023-05-24T15:29:32.907Z,1.08
2023-05-24T15:32:01.503Z,1.10
2023-05-24T15:34:28.824Z,1.08
2023-05-24T15:36:56.007Z,1.17
2023-05-24T15:39:23.172Z,1.15
2023-05-24T15:41:50.422Z,1.00
2023-05-24T15:44:17.545Z,0.95
2023-05-24T15:46:44.755Z,1.13
2023-05-24T15:49:11.896Z,1.45
2023-05-24T15:54:09.159Z,1.30
2023-05-24T15:56:36.262Z,1.25
2023-05-24T15:59:03.499Z,1.23
2023-05-24T16:01:30.704Z,1.15
2023-05-24T16:03:58.006Z,1.13
2023-05-24T16:06:25.140Z,1.17
2023-05-24T16:08:52.203Z,1.13
2023-05-24T16:11:21.505Z,0.93
2023-05-24T16:13:50.062Z,0.88
2023-05-24T16:16:17.240Z,0.80
2023-05-24T16:18:44.399Z,0.90
2023-05-24T16:21:11.517Z,1.00
2023-05-24T16:23:38.676Z,1.15
2023-05-24T16:26:05.915Z,1.15
2023-05-24T16:28:33.015Z,1.17
2023-05-24T16:31:02.338Z,1.02
2023-05-24T16:33:29.417Z,1.15
2023-05-24T16:35:56.796Z,1.08
2023-05-24T16:38:24.663Z,1.42
2023-05-24T16:40:52.425Z,1.55
2023-05-24T16:43:19.696Z,0.98
2023-05-24T16:45:46.847Z,0.95
2023-05-24T16:48:14.798Z,0.95
2023-05-24T16:50:42.321Z,1.05
2023-05-24T16:53:09.783Z,1.20
2023-05-24T16:55:36.895Z,1.70
2023-05-24T16:58:04.052Z,1.10
2023-05-24T17:00:31.312Z,0.93
2023-05-24T17:03:00.244Z,0.82
2023-05-24T17:05:27.803Z,1.58
2023-05-24T17:07:56.005Z,1.10
2023-05-24T17:10:23.104Z,1.45
2023-05-24T17:12:50.279Z,1.10
2023-05-24T17:15:17.567Z,1.20
2023-05-24T17:17:44.740Z,1.15
2023-05-24T17:20:13.416Z,1.27
2023-05-24T17:22:41.024Z,1.13
2023-05-24T17:25:08.640Z,1.23
2023-05-24T17:27:35.831Z,1.00
2023-05-24T17:30:02.960Z,0.90
2023-05-24T17:32:30.179Z,1.55
2023-05-24T17:34:57.539Z,1.35
2023-05-24T17:37:24.664Z,1.20
2023-05-24T17:39:52.403Z,1.10
2023-05-24T17:42:19.733Z,1.25
2023-05-24T17:44:47.482Z,1.20
2023-05-24T17:47:14.676Z,1.23
2023-05-24T17:49:41.837Z,0.80
2023-05-24T17:52:08.937Z,0.80
2023-05-24T17:54:36.216Z,0.77
2023-05-24T17:57:03.926Z,1.20
2023-05-24T17:59:31.614Z,0.95
2023-05-24T18:01:58.685Z,1.00
2023-05-24T18:04:25.898Z,1.10
2023-05-24T18:06:53.095Z,0.95
2023-05-24T18:09:20.319Z,0.80
2023-05-24T18:11:47.610Z,1.40
2023-05-24T18:14:14.820Z,1.00
2023-05-24T18:16:42.869Z,1.00
2023-05-24T18:19:10.157Z,1.25
2023-05-24T18:21:37.676Z,1.35
2023-05-24T18:24:04.842Z,1.17
2023-05-24T18:26:32.094Z,1.10
2023-05-24T18:28:59.289Z,1.63
2023-05-24T18:31:26.562Z,1.08
2023-05-24T18:33:53.859Z,1.10
2023-05-24T18:36:21.085Z,1.15
2023-05-24T18:38:48.229Z,1.38
2023-05-24T18:41:16.526Z,1.10
2023-05-24T18:43:43.794Z,1.13
2023-05-24T18:46:14.865Z,0.98
2023-05-24T18:48:42.407Z,1.15
2023-05-24T18:51:09.740Z,0.85
2023-05-24T18:53:37.017Z,1.13
2023-05-24T18:56:04.226Z,1.30
2023-05-24T18:58:31.668Z,1.30
2023-05-24T19:00:58.846Z,1.48
2023-05-24T19:03:26.210Z,1.40
2023-05-24T19:05:53.419Z,2.45
2023-05-24T19:08:20.592Z,1.10
2023-05-24T19:10:47.734Z,1.15
2023-05-24T19:13:15.622Z,1.10
2023-05-24T19:15:42.993Z,1.23
2023-05-24T19:18:10.326Z,1.20
2023-05-24T19:20:37.714Z,1.40
2023-05-24T19:23:05.026Z,1.58
2023-05-24T19:25:32.291Z,1.27
2023-05-24T19:28:00.774Z,1.40
2023-05-24T19:30:28.333Z,0.85
2023-05-24T19:32:55.716Z,1.60
2023-05-24T19:35:22.957Z,1.23
2023-05-24T19:37:50.221Z,1.23
2023-05-24T19:40:17.395Z,1.50
2023-05-24T19:42:44.530Z,1.40
2023-05-24T19:45:13.299Z,2.00
2023-05-24T19:47:40.520Z,1.27
2023-05-24T19:50:07.952Z,1.70
2023-05-24T19:52:35.095Z,1.60
2023-05-24T19:55:02.310Z,1.92
2023-05-24T19:57:29.436Z,1.67
2023-05-24T19:59:56.605Z,1.40
2023-05-24T20:02:23.772Z,1.42
2023-05-24T20:04:50.943Z,1.50
2023-05-24T20:07:18.124Z,1.40
2023-05-24T20:09:45.432Z,1.35
2023-05-24T20:12:12.618Z,1.27
2023-05-24T20:14:39.737Z,1.60
2023-05-24T20:17:06.913Z,1.92
2023-05-24T20:19:34.026Z,1.63
2023-05-24T20:22:01.158Z,1.95
2023-05-24T20:24:28.464Z,1.92
2023-05-24T20:26:55.611Z,1.60
2023-05-24T20:29:22.724Z,1.40
2023-05-24T20:31:49.867Z,2.03
2023-05-24T20:34:17.026Z,1.55
2023-05-24T20:36:44.237Z,1.50
2023-05-24T20:39:11.598Z,1.55
2023-05-24T20:41:38.808Z,1.35
2023-05-24T20:44:05.894Z,2.03
2023-05-24T20:46:33.243Z,1.80
2023-05-24T20:49:00.661Z,1.80
2023-05-24T20:51:27.873Z,1.88
2023-05-24T20:53:55.532Z,2.35
2023-05-24T20:56:23.242Z,1.70
2023-05-24T20:58:52.923Z,2.08
2023-05-24T21:01:20.815Z,2.10
2023-05-24T21:03:47.986Z,1.77
2023-05-24T21:06:15.207Z,1.80
2023-05-24T21:08:43.544Z,2.30
2023-05-24T21:11:11.121Z,1.95
2023-05-24T21:13:38.375Z,1.90
2023-05-24T21:16:05.724Z,1.60
2023-05-24T21:18:33.410Z,2.38
2023-05-24T21:21:00.731Z,2.20
2023-05-24T21:23:27.848Z,1.98
2023-05-24T21:25:54.947Z,1.90
2023-05-24T21:28:22.034Z,2.20
2023-05-24T21:30:49.218Z,1.85
2023-05-24T21:33:16.876Z,2.17
2023-05-24T21:35:44.447Z,2.40
2023-05-24T21:38:11.835Z,1.98
2023-05-24T21:40:38.985Z,2.22
2023-05-24T21:43:06.657Z,2.20
2023-05-24T21:45:33.818Z,1.90
2023-05-24T21:48:01.440Z,2.35
2023-05-24T21:50:29.058Z,1.92
2023-05-24T21:52:56.263Z,2.20
2023-05-24T21:55:23.608Z,2.15
2023-05-24T21:57:52.223Z,2.03
2023-05-24T22:00:20.208Z,2.13
2023-05-24T22:02:47.892Z,2.10
2023-05-24T22:05:15.147Z,1.98
2023-05-24T22:07:42.307Z,1.92
2023-05-24T22:10:10.346Z,2.38
2023-05-24T22:12:37.447Z,3.03
2023-05-24T22:15:04.833Z,2.33
2023-05-24T22:17:33.096Z,2.53
2023-05-24T22:20:01.388Z,2.28
2023-05-24T22:22:29.802Z,2.35
2023-05-24T22:24:57.089Z,2.40
2023-05-24T22:27:24.271Z,2.20
2023-05-24T22:29:51.413Z,2.13
2023-05-24T22:32:18.607Z,2.30
2023-05-24T22:34:45.769Z,2.35
2023-05-24T22:37:12.946Z,2.72
2023-05-24T22:39:40.153Z,3.00
2023-05-24T22:42:07.362Z,2.53
2023-05-24T22:44:34.468Z,2.80
2023-05-24T22:47:01.955Z,2.67
2023-05-24T22:49:29.502Z,2.65
2023-05-24T22:51:56.772Z,2.30
2023-05-24T22:54:23.925Z,2.55
2023-05-24T22:56:51.058Z,2.72
2023-05-24T22:59:18.207Z,2.67
2023-05-24T23:01:45.523Z,2.83
2023-05-24T23:04:21.029Z,2.70
2023-05-24T23:06:49.309Z,2.55
2023-05-24T23:09:17.655Z,3.28
2023-05-24T23:11:46.106Z,2.08
2023-05-24T23:14:14.108Z,2.53
2023-05-24T23:16:45.678Z,2.72
2023-05-24T23:19:13.621Z,2.67
2023-05-24T23:21:42.143Z,2.70
2023-05-24T23:24:14.258Z,3.10
2023-05-24T23:29:08.587Z,2.72
2023-05-24T23:31:36.056Z,2.92
2023-05-24T23:34:03.400Z,2.65
2023-05-24T23:36:30.659Z,2.78
2023-05-24T23:38:57.784Z,2.53
2023-05-24T23:41:24.898Z,2.40
2023-05-24T23:43:52.460Z,2.30
2023-05-24T23:46:19.675Z,2.63
2023-05-24T23:48:46.784Z,3.17
2023-05-24T23:51:13.903Z,3.35
2023-05-24T23:53:41.008Z,2.92
2023-05-24T23:56:08.095Z,2.63
2023-05-24T23:58:35.969Z,2.33
